Terminal Aerodrome Forecast
Issued by NWS Caribou, ME

Home | Current Version | Previous Version | Text Only | Print | Product List | Glossary On
Versions: 1 2 3 4 5 6 7 8 9 10 11 12 13 14 15 16 17 18 19 20
000
FTUS41 KCAR 200500
TAFCAR
TAF
KCAR 200534Z 2006/2106 29004KT P6SM FEW250
      TEMPO 2008/2012 2SM BR SCT008
     FM201500 33004KT P6SM SCT040
     FM202200 01004KT P6SM SCT250=

USA.gov is the U.S. government's official web portal to all federal, state and local government web resources and services.